createdAt,value
2023-03-27T00:02:08.832Z,6.25
2023-03-27T00:04:35.757Z,6.85
2023-03-27T00:07:03.488Z,9.75
2023-03-27T00:09:32.084Z,4.30
2023-03-27T00:11:59.185Z,7.22
2023-03-27T00:14:26.169Z,5.85
2023-03-27T00:16:53.057Z,5.40
2023-03-27T00:19:19.960Z,5.15
2023-03-27T00:21:46.804Z,6.45
2023-03-27T00:24:13.968Z,3.50
2023-03-27T00:26:42.931Z,3.03
2023-03-27T00:29:10.552Z,2.45
2023-03-27T00:31:37.371Z,5.22
2023-03-27T00:34:04.209Z,2.85
2023-03-27T00:36:31.695Z,4.85
2023-03-27T00:38:58.846Z,3.90
2023-03-27T00:41:25.998Z,6.90
2023-03-27T00:43:54.718Z,6.00
2023-03-27T00:46:27.855Z,5.93
2023-03-27T00:48:56.237Z,4.88
2023-03-27T00:51:25.030Z,4.13
2023-03-27T00:53:52.814Z,6.38
2023-03-27T00:56:20.105Z,3.58
2023-03-27T00:58:51.352Z,8.43
2023-03-27T01:01:20.168Z,2.40
2023-03-27T01:03:49.282Z,5.65
2023-03-27T01:06:17.458Z,5.25
2023-03-27T01:08:45.887Z,4.88
2023-03-27T01:11:33.750Z,4.65
2023-03-27T01:14:15.637Z,2.88
2023-03-27T01:16:54.994Z,4.82
2023-03-27T01:19:45.945Z,3.20
2023-03-27T01:22:31.621Z,2.35
2023-03-27T01:25:13.155Z,2.30
2023-03-27T01:28:12.553Z,3.80
2023-03-27T01:30:49.039Z,3.67
2023-03-27T01:33:34.289Z,4.90
2023-03-27T01:36:28.461Z,4.85
2023-03-27T01:39:01.123Z,3.20
2023-03-27T01:41:39.904Z,3.65
2023-03-27T01:44:19.265Z,3.92
2023-03-27T01:47:12.172Z,6.20
2023-03-27T01:49:45.548Z,3.00
2023-03-27T01:52:22.828Z,8.40
2023-03-27T01:54:59.097Z,4.30
2023-03-27T01:57:36.885Z,8.60
2023-03-27T02:00:21.912Z,7.20
2023-03-27T02:03:19.122Z,4.97
2023-03-27T02:05:58.612Z,4.90
2023-03-27T02:08:37.803Z,4.05
2023-03-27T02:11:05.126Z,6.45
2023-03-27T02:13:40.848Z,5.75
2023-03-27T02:16:12.048Z,5.30
2023-03-27T02:18:47.628Z,4.10
2023-03-27T02:21:15.675Z,3.45
2023-03-27T02:23:43.608Z,4.03
2023-03-27T02:26:13.047Z,4.32
2023-03-27T02:28:48.833Z,5.53
2023-03-27T02:31:32.264Z,4.95
2023-03-27T02:34:04.244Z,5.03
2023-03-27T02:36:49.189Z,4.57
2023-03-27T02:39:21.900Z,4.65
2023-03-27T02:41:59.614Z,7.57
2023-03-27T02:44:47.617Z,7.05
2023-03-27T02:47:28.727Z,3.97
2023-03-27T02:50:03.063Z,5.10
2023-03-27T02:52:35.364Z,2.47
2023-03-27T02:55:09.298Z,3.30
2023-03-27T02:57:40.907Z,2.92
2023-03-27T03:00:25.616Z,4.15
2023-03-27T03:03:11.037Z,3.85
2023-03-27T03:05:38.153Z,3.45
2023-03-27T03:08:05.789Z,3.25
2023-03-27T03:10:34.097Z,4.30
2023-03-27T03:13:00.903Z,5.32
2023-03-27T03:15:28.082Z,5.57
2023-03-27T03:17:54.820Z,1.15
2023-03-27T03:20:21.678Z,2.10
2023-03-27T03:22:49.406Z,2.97
2023-03-27T03:25:17.879Z,2.55
2023-03-27T03:27:44.688Z,5.45
2023-03-27T03:30:11.996Z,3.75
2023-03-27T03:32:43.907Z,2.38
2023-03-27T03:35:11.761Z,2.65
2023-03-27T03:37:38.887Z,3.78
2023-03-27T03:40:11.989Z,2.35
2023-03-27T03:42:50.512Z,3.03
2023-03-27T03:45:18.288Z,4.40
2023-03-27T03:47:45.737Z,4.55
2023-03-27T03:50:13.656Z,4.28
2023-03-27T03:52:40.836Z,4.65
2023-03-27T03:55:09.956Z,2.80
2023-03-27T03:57:36.745Z,4.47
2023-03-27T04:00:08.541Z,2.42
2023-03-27T04:02:37.183Z,5.20
2023-03-27T04:05:08.565Z,2.80
2023-03-27T04:07:37.718Z,1.98
2023-03-27T04:10:04.967Z,3.38
2023-03-27T04:12:32.647Z,3.05
2023-03-27T04:14:59.423Z,3.80
2023-03-27T04:17:26.448Z,3.38
2023-03-27T04:19:57.459Z,4.47
2023-03-27T04:22:26.290Z,3.28
2023-03-27T04:24:53.748Z,4.03
2023-03-27T04:27:21.303Z,2.58
2023-03-27T04:29:48.408Z,4.35
2023-03-27T04:32:19.427Z,3.05
2023-03-27T04:34:50.314Z,2.20
2023-03-27T04:37:18.467Z,3.25
2023-03-27T04:39:50.462Z,4.57
2023-03-27T04:42:17.212Z,5.88
2023-03-27T04:44:46.077Z,5.05
2023-03-27T04:47:12.920Z,4.00
2023-03-27T04:49:46.783Z,1.58
2023-03-27T04:52:17.000Z,3.55
2023-03-27T04:54:44.870Z,3.42
2023-03-27T04:57:12.228Z,3.67
2023-03-27T04:59:38.989Z,3.53
2023-03-27T05:02:06.540Z,4.10
2023-03-27T05:04:33.622Z,3.60
2023-03-27T05:07:02.321Z,3.47
2023-03-27T05:09:29.067Z,3.28
2023-03-27T05:11:56.132Z,7.05
2023-03-27T05:14:23.700Z,3.65
2023-03-27T05:16:52.277Z,7.75
2023-03-27T05:19:20.174Z,4.15
2023-03-27T05:21:47.571Z,7.03
2023-03-27T05:24:15.523Z,6.15
2023-03-27T05:26:43.311Z,5.97
2023-03-27T05:29:10.541Z,2.45
2023-03-27T05:31:38.328Z,2.28
2023-03-27T05:34:05.841Z,3.42
2023-03-27T05:36:32.673Z,3.33
2023-03-27T05:38:59.415Z,6.22
2023-03-27T05:41:26.281Z,3.38
2023-03-27T05:43:53.553Z,4.38
2023-03-27T05:46:21.850Z,3.35
2023-03-27T05:48:48.977Z,1.88
2023-03-27T05:51:15.810Z,1.30
2023-03-27T05:53:43.120Z,1.85
2023-03-27T05:56:10.554Z,3.92
2023-03-27T05:58:37.448Z,8.20
2023-03-27T06:01:04.697Z,4.70
2023-03-27T06:03:34.916Z,3.17
2023-03-27T06:06:11.384Z,5.13
2023-03-27T06:08:38.660Z,6.07
2023-03-27T06:11:12.878Z,1.17
2023-03-27T06:13:39.753Z,3.45
2023-03-27T06:16:07.470Z,1.50
2023-03-27T06:18:34.387Z,3.38
2023-03-27T06:21:01.143Z,3.20
2023-03-27T06:23:28.349Z,1.38
2023-03-27T06:25:55.250Z,3.95
2023-03-27T06:28:22.176Z,3.40
2023-03-27T06:30:49.755Z,1.92
2023-03-27T06:33:16.917Z,3.55
2023-03-27T06:35:45.233Z,4.38
2023-03-27T06:38:21.110Z,3.33
2023-03-27T06:40:47.983Z,1.52
2023-03-27T06:43:18.205Z,2.97
2023-03-27T06:45:49.056Z,2.03
2023-03-27T06:48:20.584Z,3.80
2023-03-27T06:50:51.286Z,5.45
2023-03-27T06:53:27.188Z,2.38
2023-03-27T06:55:56.875Z,4.68
2023-03-27T06:58:24.179Z,4.10
2023-03-27T07:00:51.348Z,4.57
2023-03-27T07:03:21.265Z,5.40
2023-03-27T07:05:49.708Z,6.20
2023-03-27T07:08:24.361Z,5.55
2023-03-27T07:11:10.015Z,5.93
2023-03-27T07:13:38.602Z,4.13
2023-03-27T07:16:05.909Z,1.98
2023-03-27T07:18:32.872Z,3.40
2023-03-27T07:21:00.052Z,7.55
2023-03-27T07:23:27.117Z,3.88
2023-03-27T07:25:58.056Z,2.08
2023-03-27T07:28:25.057Z,2.97
2023-03-27T07:30:52.180Z,3.42
2023-03-27T07:33:19.740Z,4.97
2023-03-27T07:35:48.297Z,10.38
2023-03-27T07:38:16.655Z,3.70
2023-03-27T07:40:46.058Z,4.50
2023-03-27T07:43:13.378Z,2.42
2023-03-27T07:45:41.635Z,2.53
2023-03-27T07:48:11.667Z,3.95
2023-03-27T07:50:39.105Z,2.03
2023-03-27T07:53:06.577Z,3.30
2023-03-27T07:55:36.876Z,2.58
2023-03-27T07:58:06.830Z,6.13
2023-03-27T08:00:35.545Z,2.40
2023-03-27T08:03:07.705Z,4.15
2023-03-27T08:05:35.478Z,5.00
2023-03-27T08:08:02.267Z,1.67
2023-03-27T08:10:29.177Z,2.80
2023-03-27T08:12:56.156Z,4.15
2023-03-27T08:15:25.335Z,3.55
2023-03-27T08:17:55.237Z,2.88
2023-03-27T08:20:23.913Z,6.53
2023-03-27T08:22:52.648Z,5.65
2023-03-27T08:25:22.494Z,6.18
2023-03-27T08:27:50.002Z,3.13
2023-03-27T08:30:17.581Z,3.13
2023-03-27T08:32:45.110Z,3.95
2023-03-27T08:35:13.544Z,2.83
2023-03-27T08:37:41.549Z,4.75
2023-03-27T08:40:19.717Z,2.92
2023-03-27T08:42:50.320Z,4.25
2023-03-27T08:45:26.348Z,4.60
2023-03-27T08:48:25.317Z,4.38
2023-03-27T08:51:12.243Z,5.97
2023-03-27T08:53:50.674Z,2.85
2023-03-27T08:56:19.924Z,3.50
2023-03-27T08:58:46.856Z,3.60
2023-03-27T09:01:41.305Z,2.15
2023-03-27T09:04:14.099Z,1.25
2023-03-27T09:07:07.473Z,1.52
2023-03-27T09:09:59.174Z,1.88
2023-03-27T09:12:41.059Z,3.53
2023-03-27T09:15:16.534Z,1.88
2023-03-27T09:17:54.492Z,3.45
2023-03-27T09:20:24.014Z,2.30
2023-03-27T09:22:55.290Z,2.60
2023-03-27T09:25:46.551Z,3.40
2023-03-27T09:28:39.711Z,1.85
2023-03-27T09:31:29.239Z,2.80
2023-03-27T09:33:59.911Z,1.85
2023-03-27T09:36:26.722Z,2.15
2023-03-27T09:38:58.700Z,6.88
2023-03-27T09:41:48.813Z,6.40
2023-03-27T09:44:25.358Z,6.53
2023-03-27T09:47:00.446Z,4.93
2023-03-27T09:49:27.887Z,3.92
2023-03-27T09:52:00.203Z,3.35
2023-03-27T09:54:31.806Z,2.42
2023-03-27T09:57:05.296Z,3.25
2023-03-27T09:59:38.261Z,2.92
2023-03-27T10:02:19.184Z,3.40
2023-03-27T10:04:58.194Z,2.58
2023-03-27T10:07:25.906Z,2.40
2023-03-27T10:10:12.010Z,1.10
2023-03-27T10:12:40.226Z,3.75
2023-03-27T10:15:32.978Z,6.20
2023-03-27T10:18:02.830Z,6.70
2023-03-27T10:20:29.641Z,3.47
2023-03-27T10:23:00.842Z,2.22
2023-03-27T10:25:34.404Z,2.53
2023-03-27T10:28:24.449Z,2.85
2023-03-27T10:31:01.912Z,0.85
2023-03-27T10:33:39.873Z,3.33
2023-03-27T10:36:09.474Z,1.95
2023-03-27T10:38:38.544Z,2.53
2023-03-27T10:41:28.783Z,2.92
2023-03-27T10:43:57.969Z,1.90
2023-03-27T10:46:30.222Z,1.75
2023-03-27T10:49:07.950Z,2.63
2023-03-27T10:51:52.142Z,1.33
2023-03-27T10:54:39.369Z,1.15
2023-03-27T10:57:15.193Z,5.63
2023-03-27T10:59:53.879Z,2.25
2023-03-27T11:02:46.557Z,1.15
2023-03-27T11:05:24.728Z,1.98
2023-03-27T11:07:58.296Z,1.58
2023-03-27T11:10:37.064Z,1.83
2023-03-27T11:13:32.124Z,2.67
2023-03-27T11:16:26.415Z,2.13
2023-03-27T11:19:11.682Z,4.35
2023-03-27T11:21:59.930Z,1.65
2023-03-27T11:24:38.260Z,3.28
2023-03-27T11:27:28.090Z,1.63
2023-03-27T11:30:33.783Z,1.20
2023-03-27T11:33:13.414Z,1.50
2023-03-27T11:35:47.358Z,1.13
2023-03-27T11:38:25.891Z,1.35
2023-03-27T11:40:52.743Z,0.40
2023-03-27T11:43:20.550Z,0.63
2023-03-27T11:46:31.361Z,0.68
2023-03-27T11:49:05.588Z,0.82
2023-03-27T11:51:47.053Z,0.60
2023-03-27T11:54:47.945Z,2.20
2023-03-27T11:57:26.408Z,0.50
2023-03-27T12:00:12.153Z,0.70
2023-03-27T12:02:46.553Z,0.60
2023-03-27T12:05:38.639Z,0.82
2023-03-27T12:08:15.897Z,0.77
2023-03-27T12:10:46.360Z,1.27
2023-03-27T12:13:41.748Z,0.50
2023-03-27T12:16:46.585Z,0.63
2023-03-27T12:19:29.699Z,1.58
2023-03-27T12:22:23.849Z,0.63
2023-03-27T12:25:15.286Z,1.02
2023-03-27T12:28:01.917Z,2.45
2023-03-27T12:31:16.310Z,0.50
2023-03-27T12:34:01.739Z,0.50
2023-03-27T12:36:35.818Z,1.98
2023-03-27T12:39:18.020Z,2.15
2023-03-27T12:41:46.007Z,0.82
2023-03-27T12:44:17.121Z,0.50
2023-03-27T12:46:44.002Z,8.10
2023-03-27T12:49:12.567Z,5.22
2023-03-27T12:51:47.594Z,3.20
2023-03-27T12:54:34.906Z,3.28
2023-03-27T12:57:22.491Z,2.05
2023-03-27T13:00:16.542Z,1.00
2023-03-27T13:03:07.182Z,0.95
2023-03-27T13:05:59.963Z,1.20
2023-03-27T13:08:45.583Z,1.08
2023-03-27T13:11:33.945Z,0.60
2023-03-27T13:14:34.566Z,2.47
2023-03-27T13:17:52.609Z,3.55
2023-03-27T13:20:48.954Z,1.20
2023-03-27T13:23:49.213Z,2.28
2023-03-27T13:26:36.659Z,0.90
2023-03-27T13:29:21.636Z,0.60
2023-03-27T13:31:49.772Z,0.88
2023-03-27T13:34:32.839Z,5.20
2023-03-27T13:37:11.958Z,0.80
2023-03-27T13:39:47.343Z,1.48
2023-03-27T13:42:37.477Z,1.20
2023-03-27T13:45:09.595Z,1.50
2023-03-27T13:48:14.968Z,1.45
2023-03-27T13:50:47.811Z,1.95
2023-03-27T13:53:23.569Z,0.80
2023-03-27T13:56:09.829Z,2.15
2023-03-27T13:58:56.753Z,1.70
2023-03-27T14:01:46.162Z,1.30
2023-03-27T14:04:54.354Z,1.67
2023-03-27T14:07:31.012Z,1.35
2023-03-27T14:10:09.450Z,0.80
2023-03-27T14:12:46.660Z,1.00
2023-03-27T14:15:33.602Z,2.10
2023-03-27T14:18:09.016Z,0.80
2023-03-27T14:20:47.686Z,0.75
2023-03-27T14:23:16.560Z,1.83
2023-03-27T14:25:47.692Z,3.15
2023-03-27T14:28:49.374Z,0.90
2023-03-27T14:31:19.147Z,1.75
2023-03-27T14:33:54.536Z,1.30
2023-03-27T14:36:28.635Z,0.77
2023-03-27T14:39:00.701Z,0.55
2023-03-27T14:41:28.041Z,0.73
2023-03-27T14:43:56.963Z,1.42
2023-03-27T14:46:26.752Z,2.70
2023-03-27T14:48:56.866Z,1.23
2023-03-27T14:51:25.340Z,1.08
2023-03-27T14:53:55.605Z,1.60
2023-03-27T14:56:25.828Z,1.08
2023-03-27T14:58:54.532Z,1.10
2023-03-27T15:01:22.137Z,1.83
2023-03-27T15:03:51.635Z,2.58
2023-03-27T15:06:26.388Z,1.10
2023-03-27T15:09:05.616Z,1.35
2023-03-27T15:11:38.346Z,1.17
2023-03-27T15:14:08.369Z,2.17
2023-03-27T15:16:35.950Z,1.10
2023-03-27T15:19:12.567Z,3.30
2023-03-27T15:22:01.061Z,1.15
2023-03-27T15:24:39.707Z,1.25
2023-03-27T15:27:10.734Z,0.93
2023-03-27T15:29:39.348Z,1.90
2023-03-27T15:32:11.196Z,1.45
2023-03-27T15:34:47.759Z,1.13
2023-03-27T15:37:19.816Z,0.70
2023-03-27T15:40:09.101Z,1.00
2023-03-27T15:42:47.489Z,1.58
2023-03-27T15:45:18.532Z,1.20
2023-03-27T15:48:01.122Z,1.35
2023-03-27T15:50:28.485Z,2.83
2023-03-27T15:52:58.228Z,2.38
2023-03-27T15:55:44.357Z,1.42
2023-03-27T15:58:29.669Z,1.85
2023-03-27T16:01:18.388Z,1.20
2023-03-27T16:03:48.484Z,1.20
2023-03-27T16:06:42.444Z,2.67
2023-03-27T16:09:25.854Z,1.63
2023-03-27T16:11:54.413Z,0.70
2023-03-27T16:14:43.994Z,1.50
2023-03-27T16:17:19.710Z,3.97
2023-03-27T16:19:52.754Z,1.38
2023-03-27T16:22:32.190Z,2.22
2023-03-27T16:25:01.000Z,1.55
2023-03-27T16:27:39.681Z,3.03
2023-03-27T16:30:19.391Z,1.55
2023-03-27T16:32:46.301Z,2.38
2023-03-27T16:35:13.429Z,3.20
2023-03-27T16:37:40.236Z,1.75
2023-03-27T16:40:07.758Z,2.50
2023-03-27T16:42:34.630Z,0.80
2023-03-27T16:45:01.870Z,2.38
2023-03-27T16:47:29.013Z,2.63
2023-03-27T16:50:10.313Z,1.83
2023-03-27T16:52:38.031Z,2.13
2023-03-27T16:55:07.300Z,2.58
2023-03-27T16:57:34.724Z,1.10
2023-03-27T17:00:01.701Z,1.80
2023-03-27T17:02:30.699Z,1.85
2023-03-27T17:04:58.890Z,2.78
2023-03-27T17:07:27.514Z,2.83
2023-03-27T17:09:54.760Z,1.95
2023-03-27T17:12:21.615Z,1.60
2023-03-27T17:14:48.634Z,0.52
2023-03-27T17:17:15.484Z,0.85
2023-03-27T17:19:42.490Z,0.70
2023-03-27T17:22:12.372Z,0.82
2023-03-27T17:24:53.435Z,0.95
2023-03-27T17:27:24.003Z,0.50
2023-03-27T17:29:51.593Z,0.40
2023-03-27T17:32:18.364Z,0.88
2023-03-27T17:34:45.186Z,1.02
2023-03-27T17:37:12.574Z,0.68
2023-03-27T17:39:39.701Z,0.40
2023-03-27T17:42:06.765Z,1.90
2023-03-27T17:44:33.701Z,0.20
2023-03-27T17:47:01.046Z,0.30
2023-03-27T17:49:29.823Z,0.30
2023-03-27T17:51:56.903Z,0.65
2023-03-27T17:54:23.780Z,0.73
2023-03-27T17:56:50.685Z,0.40
2023-03-27T17:59:17.574Z,0.45
2023-03-27T18:01:47.532Z,0.52
2023-03-27T18:04:14.360Z,0.40
2023-03-27T18:06:41.575Z,0.40
2023-03-27T18:09:08.802Z,0.30
2023-03-27T18:11:35.880Z,0.40
2023-03-27T18:14:02.692Z,0.20
2023-03-27T18:16:29.529Z,0.38
2023-03-27T18:18:57.538Z,0.20
2023-03-27T18:21:24.705Z,0.30
2023-03-27T18:23:53.475Z,0.20
2023-03-27T18:26:20.694Z,0.30
2023-03-27T18:28:47.510Z,0.40
2023-03-27T18:31:15.758Z,0.38
2023-03-27T18:33:42.578Z,0.38
2023-03-27T18:36:12.610Z,0.60
2023-03-27T18:38:40.473Z,1.30
2023-03-27T18:41:08.461Z,0.30
2023-03-27T18:43:35.301Z,0.30
2023-03-27T18:46:04.572Z,0.30
2023-03-27T18:48:31.639Z,0.40
2023-03-27T18:51:01.004Z,0.20
2023-03-27T18:53:28.717Z,0.65
2023-03-27T18:55:58.416Z,0.30
2023-03-27T18:58:27.710Z,1.10
2023-03-27T19:00:55.713Z,1.10
2023-03-27T19:03:25.436Z,1.00
2023-03-27T19:05:53.043Z,0.60
2023-03-27T19:08:21.399Z,0.70
2023-03-27T19:10:48.589Z,1.02
2023-03-27T19:13:16.004Z,0.93
2023-03-27T19:15:42.983Z,1.13
2023-03-27T19:18:09.942Z,0.73
2023-03-27T19:20:36.824Z,0.68
2023-03-27T19:23:04.084Z,0.30
2023-03-27T19:25:34.049Z,0.63
2023-03-27T19:28:02.257Z,1.13
2023-03-27T19:30:29.576Z,0.38
2023-03-27T19:32:58.460Z,0.65
2023-03-27T19:35:26.546Z,1.40
2023-03-27T19:37:54.402Z,0.70
2023-03-27T19:40:21.837Z,2.45
2023-03-27T19:42:48.717Z,1.10
2023-03-27T19:45:16.265Z,1.10
2023-03-27T19:47:43.253Z,1.50
2023-03-27T19:50:10.593Z,1.08
2023-03-27T19:52:37.695Z,1.20
2023-03-27T19:55:05.044Z,0.68
2023-03-27T19:57:31.875Z,1.00
2023-03-27T19:59:58.674Z,0.73
2023-03-27T20:02:27.285Z,1.40
2023-03-27T20:04:54.236Z,0.43
2023-03-27T20:07:21.110Z,1.10
2023-03-27T20:09:48.064Z,1.02
2023-03-27T20:12:14.828Z,0.60
2023-03-27T20:14:42.041Z,1.40
2023-03-27T20:17:27.032Z,0.95
2023-03-27T20:19:55.551Z,0.98
2023-03-27T20:22:22.394Z,0.80
2023-03-27T20:24:49.577Z,1.13
2023-03-27T20:27:19.778Z,0.60
2023-03-27T20:29:47.414Z,0.75
2023-03-27T20:32:14.891Z,1.15
2023-03-27T20:34:41.842Z,0.40
2023-03-27T20:37:14.554Z,0.63
2023-03-27T20:39:47.217Z,0.45
2023-03-27T20:42:16.056Z,0.93
2023-03-27T20:44:47.014Z,0.55
2023-03-27T20:47:15.053Z,0.45
2023-03-27T20:49:43.198Z,0.73
2023-03-27T20:52:12.761Z,1.73
2023-03-27T20:54:39.643Z,1.15
2023-03-27T20:57:06.894Z,0.77
2023-03-27T20:59:33.707Z,1.48
2023-03-27T21:02:00.655Z,0.90
2023-03-27T21:04:29.188Z,0.50
2023-03-27T21:06:57.787Z,0.45
2023-03-27T21:09:26.368Z,0.85
2023-03-27T21:11:54.926Z,0.47
2023-03-27T21:14:22.337Z,0.57
2023-03-27T21:16:49.204Z,0.50
2023-03-27T21:19:17.179Z,3.22
2023-03-27T21:21:44.653Z,0.82
2023-03-27T21:24:11.569Z,0.38
2023-03-27T21:26:38.336Z,1.35
2023-03-27T21:29:05.470Z,1.17
2023-03-27T21:31:32.358Z,0.93
2023-03-27T21:33:59.966Z,2.10
2023-03-27T21:36:29.292Z,3.60
2023-03-27T21:38:56.941Z,1.92
2023-03-27T21:41:23.834Z,1.67
2023-03-27T21:43:50.697Z,0.80
2023-03-27T21:46:17.565Z,1.00
2023-03-27T21:48:51.946Z,1.40
2023-03-27T21:51:18.951Z,1.15
2023-03-27T21:53:45.968Z,0.50
2023-03-27T21:56:12.796Z,1.05
2023-03-27T21:58:39.564Z,1.33
2023-03-27T22:01:06.884Z,4.05
2023-03-27T22:03:33.858Z,1.42
2023-03-27T22:06:12.521Z,1.88
2023-03-27T22:08:41.374Z,0.50
2023-03-27T22:11:09.048Z,0.68
2023-03-27T22:13:37.121Z,1.38
2023-03-27T22:16:09.808Z,1.67
2023-03-27T22:18:36.588Z,0.75
2023-03-27T22:21:24.447Z,0.55
2023-03-27T22:23:52.350Z,0.50
2023-03-27T22:26:20.536Z,2.30
2023-03-27T22:28:47.876Z,1.13
2023-03-27T22:31:14.742Z,0.55
2023-03-27T22:33:41.622Z,1.17
2023-03-27T22:36:11.809Z,1.30
2023-03-27T22:38:39.393Z,0.85
2023-03-27T22:41:08.475Z,0.68
2023-03-27T22:43:35.233Z,0.68
2023-03-27T22:46:10.416Z,0.50
2023-03-27T22:48:37.515Z,1.90
2023-03-27T22:51:05.263Z,2.13
2023-03-27T22:53:32.902Z,1.40
2023-03-27T22:56:00.878Z,0.90
2023-03-27T22:58:28.802Z,1.83
2023-03-27T23:00:56.472Z,1.63
2023-03-27T23:03:24.846Z,2.92
2023-03-27T23:05:52.383Z,2.20
2023-03-27T23:08:21.498Z,1.20
2023-03-27T23:10:55.364Z,0.73
2023-03-27T23:13:22.786Z,2.30
2023-03-27T23:15:51.752Z,2.33
2023-03-27T23:18:23.719Z,0.95
2023-03-27T23:20:58.706Z,0.63
2023-03-27T23:23:26.678Z,1.02
2023-03-27T23:25:54.353Z,1.25
2023-03-27T23:28:21.302Z,2.10
2023-03-27T23:30:55.634Z,2.13
2023-03-27T23:33:25.219Z,3.60
2023-03-27T23:35:54.013Z,1.42
2023-03-27T23:38:21.018Z,2.72
2023-03-27T23:40:55.683Z,1.80
2023-03-27T23:43:22.659Z,1.20
2023-03-27T23:45:49.465Z,2.45
2023-03-27T23:48:16.213Z,1.73
2023-03-27T23:50:43.307Z,1.48
2023-03-27T23:53:11.407Z,0.70
2023-03-27T23:55:38.348Z,1.33
2023-03-27T23:58:05.575Z,0.60
